KTIX 262047Z 35008KT 7SM SKC 22/08 A3011
From batch tds/metars/production/2023/1/26/h20_m50_metars.cache.csv.gz
Observed at (36 minutes ago)
Identifier KTIX
KSUA 262047Z 01006KT 7SM SCT019 21/13 A3010
From batch tds/metars/production/2023/1/26/h20_m50_metars.cache.csv.gz
Observed at (36 minutes ago)
Identifier KSUA
KSQL 262047Z 00000KT 10SM CLR 18/01 A3042
From batch tds/metars/production/2023/1/26/h20_m50_metars.cache.csv.gz
Observed at (36 minutes ago)
Identifier KSQL
KHUM 262047Z 31008G16KT 7SM CLR 14/01 A3030
From batch tds/metars/production/2023/1/26/h20_m50_metars.cache.csv.gz
Observed at (36 minutes ago)
Identifier KHUM
KGYR 262047Z 03010G17KT 10SM SKC 17/M11 A3029
From batch tds/metars/production/2023/1/26/h20_m50_metars.cache.csv.gz
Observed at (36 minutes ago)
Identifier KGYR
KGYH 262047Z 25013G20KT 10SM CLR 09/M04 A3002
From batch tds/metars/production/2023/1/26/h20_m50_metars.cache.csv.gz
Observed at (36 minutes ago)
Identifier KGYH
talk